Time;durP1;ratioP1;P1;durP2;ratioP2;P2;SDS_P1;SDS_P2;PMS_P1;PMS_P2;Temp;Humidity;BMP_temperature;BMP_pressure;BME280_temperature;BME280_humidity;BME280_pressure;Samples;Min_cycle;Max_cycle;Signal;HPM_P1;HPM_P2
2021/07/15 00:01:19;;;;;;;109.35;64.80;;;;;;;;;;5013376;28;20577;-74
2021/07/15 00:03:44;;;;;;;89.78;58.88;;;;;;;;;;5007849;28;20178;-72
2021/07/15 00:06:10;;;;;;;108.00;63.63;;;;;;;;;;5014156;28;20196;-73
2021/07/15 00:08:36;;;;;;;112.07;65.05;;;;;;;;;;5024137;28;20590;-76
2021/07/15 00:11:09;;;;;;;104.38;62.83;;;;;;;;;;5013418;28;20646;-73
2021/07/15 00:13:34;;;;;;;109.35;64.32;;;;;;;;;;5006226;28;20247;-72
2021/07/15 00:16:03;;;;;;;97.75;62.00;;;;;;;;;;5013141;28;20190;-71
2021/07/15 00:18:31;;;;;;;97.50;58.80;;;;;;;;;;5005321;28;20206;-73
2021/07/15 00:20:58;;;;;;;104.22;62.58;;;;;;;;;;5014856;28;20214;-71
2021/07/15 00:23:24;;;;;;;98.30;58.95;;;;;;;;;;5021308;28;20178;-70
2021/07/15 00:25:50;;;;;;;104.05;60.80;;;;;;;;;;5015309;28;20294;-71
2021/07/15 00:28:16;;;;;;;96.55;59.55;;;;;;;;;;5023293;28;20257;-71
2021/07/15 00:30:42;;;;;;;95.90;60.10;;;;;;;;;;5010669;28;20744;-72
2021/07/15 00:33:08;;;;;;;101.72;61.08;;;;;;;;;;5023144;28;20205;-70
2021/07/15 00:35:35;;;;;;;103.03;61.83;;;;;;;;;;5019133;28;20603;-72
2021/07/15 00:38:00;;;;;;;98.32;59.47;;;;;;;;;;5017436;28;20277;-72
2021/07/15 00:40:26;;;;;;;103.63;62.67;;;;;;;;;;5021775;28;20302;-73
2021/07/15 00:42:51;;;;;;;113.05;64.78;;;;;;;;;;5016373;28;20418;-74
2021/07/15 00:45:18;;;;;;;110.22;63.97;;;;;;;;;;5025149;28;20212;-71
2021/07/15 00:47:47;;;;;;;112.50;65.13;;;;;;;;;;5015418;28;20189;-72
2021/07/15 00:50:14;;;;;;;115.82;68.50;;;;;;;;;;5024099;28;20225;-74
2021/07/15 00:52:41;;;;;;;111.70;65.75;;;;;;;;;;5012623;28;20633;-73
2021/07/15 00:55:17;;;;;;;133.10;70.03;;;;;;;;;;5024692;28;20206;-73
2021/07/15 00:57:42;;;;;;;120.80;68.28;;;;;;;;;;4993232;28;20212;-72
2021/07/15 01:00:10;;;;;;;129.77;70.20;;;;;;;;;;5026152;28;20206;-72
2021/07/15 01:02:37;;;;;;;130.75;70.93;;;;;;;;;;5011414;28;20601;-73
2021/07/15 01:05:17;;;;;;;130.75;70.72;;;;;;;;;;5022326;28;20199;-73
2021/07/15 01:07:43;;;;;;;140.65;73.53;;;;;;;;;;5000939;28;20185;-74
2021/07/15 01:10:10;;;;;;;132.50;72.53;;;;;;;;;;5018470;28;20540;-75
2021/07/15 01:12:56;;;;;;;145.18;76.15;;;;;;;;;;5009958;28;20269;-71
2021/07/15 01:15:24;;;;;;;142.75;74.43;;;;;;;;;;5024374;28;20182;-75
2021/07/15 01:17:59;;;;;;;135.95;74.05;;;;;;;;;;5025903;28;20201;-73
2021/07/15 01:20:52;;;;;;;140.50;75.65;;;;;;;;;;5000418;28;20217;-72
2021/07/15 01:23:50;;;;;;;140.55;75.03;;;;;;;;;;5024506;28;20201;-73
2021/07/15 01:26:53;;;;;;;135.07;74.53;;;;;;;;;;4991319;28;20186;-72
2021/07/15 01:29:29;;;;;;;149.13;75.93;;;;;;;;;;5013408;28;20208;-71
2021/07/15 01:31:58;;;;;;;156.02;77.40;;;;;;;;;;5026172;28;20669;-74
2021/07/15 01:34:25;;;;;;;139.18;74.20;;;;;;;;;;5016320;28;20187;-70
2021/07/15 01:36:53;;;;;;;142.85;76.47;;;;;;;;;;5010695;28;20186;-71
2021/07/15 01:39:24;;;;;;;145.80;73.43;;;;;;;;;;5014942;28;20224;-74
2021/07/15 01:41:52;;;;;;;160.52;77.18;;;;;;;;;;5024109;28;20182;-69
2021/07/15 01:44:24;;;;;;;136.57;74.90;;;;;;;;;;5021845;28;20212;-74
2021/07/15 01:46:51;;;;;;;130.40;71.32;;;;;;;;;;5015813;28;20192;-76
2021/07/15 01:49:17;;;;;;;136.65;74.00;;;;;;;;;;5018671;28;20225;-73
2021/07/15 01:51:43;;;;;;;150.02;74.97;;;;;;;;;;5014437;28;20194;-72
2021/07/15 01:54:09;;;;;;;140.60;75.20;;;;;;;;;;5024390;28;20184;-72
2021/07/15 01:56:36;;;;;;;136.80;74.15;;;;;;;;;;5015180;28;20190;-75
2021/07/15 01:59:02;;;;;;;138.30;73.22;;;;;;;;;;5021643;28;20210;-76
2021/07/15 02:01:28;;;;;;;138.07;73.18;;;;;;;;;;5017706;28;20206;-70
2021/07/15 02:03:57;;;;;;;137.20;72.68;;;;;;;;;;5024679;28;20193;-70
2021/07/15 02:06:23;;;;;;;145.32;71.63;;;;;;;;;;5015212;28;20230;-74
2021/07/15 02:08:51;;;;;;;169.35;76.22;;;;;;;;;;5020444;28;20190;-75
2021/07/15 02:11:17;;;;;;;159.52;73.88;;;;;;;;;;4991532;28;20313;-73
2021/07/15 02:13:44;;;;;;;146.48;76.32;;;;;;;;;;5025914;28;20635;-72
2021/07/15 02:16:10;;;;;;;146.48;75.80;;;;;;;;;;5026272;28;20220;-75
2021/07/15 02:18:38;;;;;;;145.77;74.65;;;;;;;;;;5018996;28;20183;-74
2021/07/15 02:21:04;;;;;;;155.00;77.10;;;;;;;;;;5022582;28;20209;-75
2021/07/15 02:23:30;;;;;;;154.77;75.85;;;;;;;;;;5000338;28;20580;-73
2021/07/15 02:25:57;;;;;;;133.13;70.55;;;;;;;;;;5023385;28;20186;-73
2021/07/15 02:28:25;;;;;;;128.55;70.15;;;;;;;;;;5015339;28;20541;-70
2021/07/15 02:30:56;;;;;;;154.75;74.88;;;;;;;;;;5025568;28;20186;-71
2021/07/15 02:33:25;;;;;;;140.63;72.97;;;;;;;;;;5010812;28;20189;-71
2021/07/15 02:35:54;;;;;;;151.05;73.53;;;;;;;;;;5018079;28;20618;-73
2021/07/15 02:38:22;;;;;;;132.27;69.82;;;;;;;;;;5015669;28;20272;-71
2021/07/15 02:40:48;;;;;;;119.97;68.35;;;;;;;;;;5019389;28;20220;-73
2021/07/15 02:43:13;;;;;;;120.75;65.22;;;;;;;;;;5015652;28;20260;-70
2021/07/15 02:45:39;;;;;;;127.97;68.20;;;;;;;;;;5022551;28;20598;-73
2021/07/15 02:48:04;;;;;;;121.05;66.03;;;;;;;;;;5014215;28;20194;-72
2021/07/15 02:50:29;;;;;;;117.47;61.75;;;;;;;;;;5021442;28;20225;-72
2021/07/15 02:52:56;;;;;;;116.75;64.55;;;;;;;;;;5025660;28;20227;-73
2021/07/15 02:55:23;;;;;;;122.88;62.38;;;;;;;;;;5010940;28;20673;-77
2021/07/15 02:58:22;;;;;;;116.97;59.83;;;;;;;;;;5023962;28;20673;-74
2021/07/15 03:00:54;;;;;;;103.38;57.08;;;;;;;;;;5020405;28;20305;-72
2021/07/15 03:03:38;;;;;;;86.78;54.47;;;;;;;;;;5024638;28;20232;-71
2021/07/15 03:06:09;;;;;;;92.30;55.17;;;;;;;;;;5021145;28;20189;-71
2021/07/15 03:08:43;;;;;;;85.28;54.70;;;;;;;;;;5006218;28;20182;-71
2021/07/15 03:11:09;;;;;;;76.20;47.70;;;;;;;;;;5012198;28;20201;-71
2021/07/15 03:13:37;;;;;;;69.03;45.20;;;;;;;;;;5027230;28;20194;-72
2021/07/15 03:16:04;;;;;;;77.68;45.40;;;;;;;;;;4996152;28;20190;-72
2021/07/15 03:18:30;;;;;;;70.70;45.45;;;;;;;;;;5019250;28;20194;-73
2021/07/15 03:20:57;;;;;;;68.40;43.22;;;;;;;;;;5012754;28;20614;-74
2021/07/15 03:23:24;;;;;;;57.20;38.78;;;;;;;;;;5024859;28;20559;-73
2021/07/15 03:25:54;;;;;;;61.90;41.65;;;;;;;;;;4997051;28;20251;-73
2021/07/15 03:28:21;;;;;;;63.63;40.80;;;;;;;;;;5022294;28;20224;-73
2021/07/15 03:30:50;;;;;;;54.20;37.20;;;;;;;;;;5011593;28;20191;-73
2021/07/15 03:33:19;;;;;;;55.20;36.80;;;;;;;;;;5023977;28;20252;-74
2021/07/15 03:35:46;;;;;;;52.53;35.53;;;;;;;;;;5009337;28;20190;-73
2021/07/15 03:38:13;;;;;;;47.70;34.28;;;;;;;;;;5007214;28;20247;-72
2021/07/15 03:40:39;;;;;;;51.78;36.08;;;;;;;;;;5010347;28;20614;-72
2021/07/15 03:43:08;;;;;;;59.60;38.72;;;;;;;;;;5015342;28;20201;-71
2021/07/15 03:45:34;;;;;;;71.10;40.17;;;;;;;;;;5024755;28;20196;-76
2021/07/15 03:48:00;;;;;;;86.90;46.15;;;;;;;;;;5017302;28;20198;-74
2021/07/15 03:50:28;;;;;;;80.63;45.88;;;;;;;;;;5024505;28;20214;-75
2021/07/15 03:52:57;;;;;;;97.25;50.55;;;;;;;;;;4996942;28;20215;-73
2021/07/15 03:55:25;;;;;;;107.60;51.42;;;;;;;;;;5023676;28;20213;-74
2021/07/15 03:57:51;;;;;;;104.35;52.85;;;;;;;;;;5013417;28;20187;-74
2021/07/15 04:00:21;;;;;;;116.45;56.97;;;;;;;;;;5006762;28;21785;-75
2021/07/15 04:02:47;;;;;;;148.73;63.88;;;;;;;;;;5014490;28;20270;-74
2021/07/15 04:05:13;;;;;;;140.15;64.35;;;;;;;;;;5007292;28;20689;-72
2021/07/15 04:07:39;;;;;;;154.30;65.55;;;;;;;;;;4999149;28;20214;-72
2021/07/15 04:10:05;;;;;;;155.48;66.90;;;;;;;;;;5028024;28;20174;-71
2021/07/15 04:12:33;;;;;;;167.63;66.03;;;;;;;;;;5020287;28;20633;-74
2021/07/15 04:15:11;;;;;;;157.60;66.70;;;;;;;;;;5012419;28;20188;-75
2021/07/15 04:17:45;;;;;;;152.60;65.65;;;;;;;;;;5017226;28;20201;-73
2021/07/15 04:20:11;;;;;;;128.15;60.10;;;;;;;;;;5024310;28;20190;-73
2021/07/15 04:22:39;;;;;;;139.70;62.72;;;;;;;;;;5008137;28;20256;-73
2021/07/15 04:25:06;;;;;;;136.07;63.40;;;;;;;;;;5021038;28;20186;-70
2021/07/15 04:27:34;;;;;;;152.75;66.93;;;;;;;;;;5026519;28;20206;-73
2021/07/15 04:30:08;;;;;;;154.63;67.47;;;;;;;;;;5019986;28;20174;-69
2021/07/15 04:32:38;;;;;;;167.48;70.15;;;;;;;;;;5023659;28;20245;-68
2021/07/15 04:35:07;;;;;;;192.63;71.60;;;;;;;;;;5014012;28;20282;-71
2021/07/15 04:37:32;;;;;;;220.02;74.93;;;;;;;;;;5023940;28;20187;-70
2021/07/15 04:39:58;;;;;;;182.68;68.88;;;;;;;;;;5016612;28;20300;-68
2021/07/15 04:42:25;;;;;;;196.60;75.15;;;;;;;;;;5026133;28;20194;-71
2021/07/15 04:44:51;;;;;;;204.23;74.05;;;;;;;;;;5015664;28;20190;-70
2021/07/15 04:47:20;;;;;;;190.40;72.22;;;;;;;;;;5024180;28;20213;-71
2021/07/15 04:49:45;;;;;;;215.98;75.72;;;;;;;;;;5024209;28;20300;-71
2021/07/15 04:52:12;;;;;;;191.15;69.32;;;;;;;;;;5044838;28;20276;-71
2021/07/15 04:54:38;;;;;;;159.77;66.72;;;;;;;;;;5038128;28;21802;-71
2021/07/15 04:57:05;;;;;;;167.43;69.95;;;;;;;;;;5045722;28;20185;-71
2021/07/15 04:59:30;;;;;;;180.85;67.53;;;;;;;;;;5058160;28;20300;-72
2021/07/15 05:01:56;;;;;;;169.48;67.72;;;;;;;;;;5037165;28;20272;-71
2021/07/15 05:04:23;;;;;;;150.70;64.00;;;;;;;;;;5049611;28;20189;-72
2021/07/15 05:06:48;;;;;;;200.00;70.35;;;;;;;;;;5033610;28;20309;-71
2021/07/15 05:09:14;;;;;;;142.85;60.38;;;;;;;;;;5055170;28;20182;-72
2021/07/15 05:11:39;;;;;;;149.02;62.78;;;;;;;;;;5036079;28;20196;-69
2021/07/15 05:14:05;;;;;;;140.10;60.78;;;;;;;;;;5047644;28;20597;-70
2021/07/15 05:16:31;;;;;;;171.60;63.78;;;;;;;;;;5033936;28;20192;-72
2021/07/15 05:18:57;;;;;;;150.10;62.60;;;;;;;;;;5048887;28;20181;-75
2021/07/15 05:21:23;;;;;;;122.43;57.78;;;;;;;;;;5032826;28;20193;-73
2021/07/15 05:23:48;;;;;;;124.15;58.55;;;;;;;;;;5048802;28;20525;-73
2021/07/15 05:26:14;;;;;;;158.07;62.67;;;;;;;;;;5037866;28;20201;-73
2021/07/15 05:28:41;;;;;;;158.80;63.75;;;;;;;;;;5050084;28;20185;-72
2021/07/15 05:31:06;;;;;;;147.88;63.22;;;;;;;;;;5034767;28;20183;-71
2021/07/15 05:33:32;;;;;;;114.55;54.88;;;;;;;;;;5042489;28;20197;-71
2021/07/15 05:35:57;;;;;;;143.18;57.35;;;;;;;;;;5046235;28;20210;-70
2021/07/15 05:38:22;;;;;;;112.97;54.65;;;;;;;;;;5039818;28;20212;-70
2021/07/15 05:40:48;;;;;;;115.47;53.67;;;;;;;;;;5045848;28;20189;-71
2021/07/15 05:43:14;;;;;;;102.30;51.17;;;;;;;;;;5038099;28;20648;-71
2021/07/15 05:45:39;;;;;;;88.43;45.03;;;;;;;;;;5044290;28;20203;-70
2021/07/15 05:48:05;;;;;;;84.68;44.58;;;;;;;;;;5031707;28;20209;-70
2021/07/15 05:50:31;;;;;;;97.25;44.60;;;;;;;;;;5045627;28;20228;-71
2021/07/15 05:52:56;;;;;;;74.25;43.08;;;;;;;;;;5038705;28;20181;-71
2021/07/15 05:55:21;;;;;;;71.65;40.05;;;;;;;;;;5040114;28;20190;-69
2021/07/15 05:57:47;;;;;;;81.28;41.95;;;;;;;;;;5035585;28;20833;-71
2021/07/15 06:00:14;;;;;;;75.30;42.65;;;;;;;;;;5040636;28;20235;-76
2021/07/15 06:02:39;;;;;;;73.72;41.83;;;;;;;;;;5045120;28;20185;-77
2021/07/15 06:05:05;;;;;;;59.30;36.75;;;;;;;;;;5038224;28;20542;-77
2021/07/15 06:07:31;;;;;;;62.45;38.03;;;;;;;;;;5047620;28;20196;-77
2021/07/15 06:09:56;;;;;;;73.97;39.42;;;;;;;;;;5038445;28;20610;-77
2021/07/15 06:12:21;;;;;;;58.85;37.95;;;;;;;;;;5047735;28;20688;-74
2021/07/15 06:14:47;;;;;;;58.15;37.05;;;;;;;;;;5032876;28;20183;-73
2021/07/15 06:17:12;;;;;;;63.10;38.42;;;;;;;;;;5039663;28;20613;-74
2021/07/15 06:19:38;;;;;;;66.60;40.83;;;;;;;;;;5034542;28;20665;-74
2021/07/15 06:22:03;;;;;;;74.20;43.63;;;;;;;;;;5044408;28;20193;-72
2021/07/15 06:24:29;;;;;;;80.75;45.40;;;;;;;;;;5036440;28;20211;-72
2021/07/15 06:26:54;;;;;;;74.68;43.08;;;;;;;;;;5048242;28;20227;-71
2021/07/15 06:29:20;;;;;;;84.75;44.65;;;;;;;;;;5033874;28;20268;-71
2021/07/15 06:31:45;;;;;;;76.53;42.65;;;;;;;;;;5047466;28;20201;-70
2021/07/15 06:34:11;;;;;;;76.63;44.50;;;;;;;;;;5037236;28;20208;-69
2021/07/15 06:36:37;;;;;;;85.03;45.85;;;;;;;;;;5043640;28;20189;-71
2021/07/15 06:39:03;;;;;;;89.60;46.33;;;;;;;;;;5042739;28;20186;-71
2021/07/15 06:41:28;;;;;;;88.60;45.53;;;;;;;;;;5039047;28;20547;-71
2021/07/15 06:43:54;;;;;;;72.65;41.92;;;;;;;;;;5040967;28;20182;-73
2021/07/15 06:46:22;;;;;;;88.28;44.33;;;;;;;;;;5034595;28;20197;-69
2021/07/15 06:48:48;;;;;;;86.53;43.80;;;;;;;;;;5041814;28;20202;-69
2021/07/15 06:51:13;;;;;;;77.30;43.78;;;;;;;;;;5016530;28;20268;-69
2021/07/15 06:53:39;;;;;;;91.72;44.88;;;;;;;;;;5019665;28;21668;-69
2021/07/15 06:56:04;;;;;;;83.28;43.90;;;;;;;;;;5014520;28;20190;-70
2021/07/15 06:58:29;;;;;;;80.10;43.97;;;;;;;;;;5020827;28;20183;-73
2021/07/15 07:00:56;;;;;;;102.68;46.63;;;;;;;;;;5015987;28;20297;-71
2021/07/15 07:03:22;;;;;;;92.55;47.03;;;;;;;;;;5022475;28;20557;-70
2021/07/15 07:05:49;;;;;;;98.65;48.13;;;;;;;;;;5010191;28;20178;-70
2021/07/15 07:08:15;;;;;;;108.97;48.00;;;;;;;;;;5021992;28;20178;-69
2021/07/15 07:10:40;;;;;;;109.68;49.60;;;;;;;;;;5018817;28;20589;-70
2021/07/15 07:13:05;;;;;;;100.93;49.28;;;;;;;;;;5013280;28;20182;-70
2021/07/15 07:15:31;;;;;;;97.28;47.45;;;;;;;;;;5027579;28;20186;-70
2021/07/15 07:17:56;;;;;;;105.65;51.92;;;;;;;;;;5014214;28;23598;-72
2021/07/15 07:20:22;;;;;;;92.05;47.45;;;;;;;;;;5018886;28;20209;-72
2021/07/15 07:22:47;;;;;;;89.55;45.30;;;;;;;;;;5016027;28;20186;-72
2021/07/15 07:25:14;;;;;;;84.60;44.53;;;;;;;;;;5024270;28;20541;-73
2021/07/15 07:27:40;;;;;;;92.57;44.03;;;;;;;;;;5014716;28;20589;-72
2021/07/15 07:30:08;;;;;;;89.85;43.83;;;;;;;;;;5024032;28;20185;-71
2021/07/15 07:32:34;;;;;;;87.65;43.53;;;;;;;;;;5015292;28;20209;-73
2021/07/15 07:34:59;;;;;;;86.07;41.60;;;;;;;;;;5019943;28;20539;-71
2021/07/15 07:37:25;;;;;;;65.85;37.95;;;;;;;;;;5013762;28;23234;-69
2021/07/15 07:39:51;;;;;;;72.80;38.72;;;;;;;;;;5022742;28;20206;-75
2021/07/15 07:42:17;;;;;;;72.78;39.42;;;;;;;;;;5024467;28;20185;-76
2021/07/15 07:44:42;;;;;;;72.72;37.13;;;;;;;;;;4996921;28;20521;-76
2021/07/15 07:47:08;;;;;;;66.75;35.95;;;;;;;;;;5028217;28;20209;-76
2021/07/15 07:49:33;;;;;;;67.35;38.42;;;;;;;;;;5005267;28;20217;-71
2021/07/15 07:51:58;;;;;;;74.60;39.03;;;;;;;;;;5043277;28;20211;-75
2021/07/15 07:54:24;;;;;;;86.45;41.72;;;;;;;;;;5038270;28;20240;-71
2021/07/15 07:56:49;;;;;;;78.55;40.95;;;;;;;;;;5046224;28;20716;-75
2021/07/15 07:59:15;;;;;;;86.03;42.53;;;;;;;;;;5035873;28;20614;-76
2021/07/15 08:01:40;;;;;;;87.20;43.30;;;;;;;;;;5043901;28;20189;-74
2021/07/15 08:04:06;;;;;;;90.70;44.30;;;;;;;;;;5037942;28;20269;-76
2021/07/15 08:06:37;;;;;;;86.68;44.13;;;;;;;;;;5043512;28;20189;-73
2021/07/15 08:09:08;;;;;;;93.90;44.75;;;;;;;;;;5040307;28;20189;-75
2021/07/15 08:11:35;;;;;;;87.95;46.22;;;;;;;;;;5044316;28;20185;-72
2021/07/15 08:14:00;;;;;;;91.90;45.53;;;;;;;;;;5047541;28;20181;-70
2021/07/15 08:16:25;;;;;;;88.97;44.20;;;;;;;;;;5036572;28;20702;-72
2021/07/15 08:18:51;;;;;;;86.75;44.50;;;;;;;;;;5048426;28;20551;-72
2021/07/15 08:21:18;;;;;;;83.65;43.88;;;;;;;;;;5036265;28;20227;-71
2021/07/15 08:23:44;;;;;;;74.25;42.17;;;;;;;;;;5049256;28;20181;-74
2021/07/15 08:26:10;;;;;;;83.82;43.88;;;;;;;;;;5034433;28;20208;-71
2021/07/15 08:28:35;;;;;;;101.65;46.78;;;;;;;;;;5047718;28;20185;-72
2021/07/15 08:31:01;;;;;;;92.50;45.05;;;;;;;;;;5040800;28;20586;-71
2021/07/15 08:33:26;;;;;;;97.38;42.20;;;;;;;;;;5051204;28;20185;-71
2021/07/15 08:35:52;;;;;;;70.55;38.97;;;;;;;;;;5036048;28;20193;-72
2021/07/15 08:38:19;;;;;;;77.55;39.08;;;;;;;;;;5046400;28;20691;-71
2021/07/15 08:40:45;;;;;;;80.72;39.15;;;;;;;;;;5036368;28;20292;-71
2021/07/15 08:43:10;;;;;;;78.22;41.33;;;;;;;;;;5050978;28;20700;-72
2021/07/15 08:45:36;;;;;;;75.03;40.15;;;;;;;;;;5045399;28;20515;-70
2021/07/15 08:48:04;;;;;;;69.40;39.30;;;;;;;;;;5038526;28;20672;-72
2021/07/15 08:50:30;;;;;;;76.20;40.60;;;;;;;;;;5035161;28;20624;-71
2021/07/15 08:52:56;;;;;;;62.80;38.47;;;;;;;;;;5014780;28;20213;-71
2021/07/15 08:56:36;;;;;;;67.80;39.35;;;;;;;;;;5026719;28;20208;-72
2021/07/15 08:58:06;;;;;;;62.42;36.95;;;;;;;;;;5011456;28;20215;-70
2021/07/15 09:00:32;;;;;;;67.07;35.75;;;;;;;;;;5027569;28;20236;-71
2021/07/15 09:02:57;;;;;;;64.68;37.08;;;;;;;;;;5016987;28;20190;-71
2021/07/15 09:05:22;;;;;;;60.45;35.25;;;;;;;;;;5024323;28;20182;-73
2021/07/15 09:07:49;;;;;;;65.47;37.78;;;;;;;;;;5019028;28;20193;-72
2021/07/15 09:10:14;;;;;;;55.72;35.35;;;;;;;;;;5026488;28;20178;-73
2021/07/15 09:12:40;;;;;;;66.13;38.13;;;;;;;;;;5014170;28;20189;-70
2021/07/15 09:15:07;;;;;;;59.67;36.03;;;;;;;;;;5026264;28;20269;-71
2021/07/15 09:17:35;;;;;;;58.95;35.35;;;;;;;;;;5013999;28;20193;-71
2021/07/15 09:20:06;;;;;;;62.60;35.75;;;;;;;;;;5030949;28;20198;-74
2021/07/15 09:22:32;;;;;;;64.25;34.33;;;;;;;;;;5000715;28;20190;-73
2021/07/15 09:25:00;;;;;;;54.60;33.90;;;;;;;;;;5011703;28;20186;-76
2021/07/15 09:27:27;;;;;;;57.55;34.58;;;;;;;;;;5008564;28;20771;-77
2021/07/15 09:30:09;;;;;;;51.85;33.05;;;;;;;;;;4998999;28;20643;-76
2021/07/15 09:32:54;;;;;;;51.70;32.83;;;;;;;;;;5005881;28;20197;-76
2021/07/15 09:35:47;;;;;;;48.67;32.17;;;;;;;;;;5018839;28;20209;-75
2021/07/15 09:38:13;;;;;;;62.88;35.45;;;;;;;;;;5024090;28;20190;-76
2021/07/15 09:40:42;;;;;;;47.05;31.20;;;;;;;;;;5018144;28;20230;-77
2021/07/15 09:43:21;;;;;;;46.45;29.58;;;;;;;;;;5020561;28;20183;-76
2021/07/15 09:45:49;;;;;;;49.78;27.23;;;;;;;;;;4997148;28;20252;-78
2021/07/15 09:48:23;;;;;;;27.20;19.65;;;;;;;;;;5009979;28;20190;-76
2021/07/15 09:50:50;;;;;;;27.95;18.58;;;;;;;;;;5019635;28;20620;-75
2021/07/15 09:53:33;;;;;;;30.98;21.25;;;;;;;;;;5026021;28;20517;-75
2021/07/15 09:56:10;;;;;;;28.00;19.38;;;;;;;;;;5017044;28;20194;-74
2021/07/15 09:58:40;;;;;;;22.02;16.20;;;;;;;;;;5027191;28;20177;-74
2021/07/15 10:01:07;;;;;;;18.80;14.43;;;;;;;;;;5011614;28;20218;-73
2021/07/15 10:03:38;;;;;;;15.95;13.30;;;;;;;;;;5027716;28;20190;-72
2021/07/15 10:06:04;;;;;;;17.48;14.82;;;;;;;;;;5016263;28;20280;-72
2021/07/15 10:08:32;;;;;;;16.60;14.85;;;;;;;;;;5010131;28;20763;-72
2021/07/15 10:11:23;;;;;;;20.65;16.67;;;;;;;;;;5012844;28;20212;-70
2021/07/15 10:14:03;;;;;;;19.55;15.77;;;;;;;;;;5023504;28;20218;-69
2021/07/15 10:16:37;;;;;;;19.63;16.58;;;;;;;;;;4995407;28;20548;-72
2021/07/15 10:19:05;;;;;;;19.63;17.30;;;;;;;;;;5021854;28;20265;-71
2021/07/15 10:21:32;;;;;;;22.95;17.90;;;;;;;;;;5016925;28;20190;-70
2021/07/15 10:24:12;;;;;;;21.02;16.20;;;;;;;;;;5023519;28;20225;-69
2021/07/15 10:26:40;;;;;;;21.23;16.60;;;;;;;;;;5011516;28;20190;-71
2021/07/15 10:29:07;;;;;;;18.73;16.73;;;;;;;;;;5021911;28;20201;-70
2021/07/15 10:31:32;;;;;;;22.90;18.95;;;;;;;;;;4998384;28;20186;-72
2021/07/15 10:33:58;;;;;;;21.88;17.27;;;;;;;;;;5025393;28;20591;-70
2021/07/15 10:36:24;;;;;;;26.95;18.75;;;;;;;;;;5013082;28;20187;-70
2021/07/15 10:38:52;;;;;;;23.13;18.40;;;;;;;;;;5025363;28;20197;-73
2021/07/15 10:41:20;;;;;;;23.15;19.65;;;;;;;;;;5024508;28;20556;-71
2021/07/15 10:43:46;;;;;;;28.85;20.45;;;;;;;;;;5009305;28;20532;-74
2021/07/15 10:46:11;;;;;;;26.75;20.25;;;;;;;;;;5003032;28;20189;-73
2021/07/15 10:48:37;;;;;;;27.05;20.20;;;;;;;;;;5014540;28;20194;-72
2021/07/15 10:51:04;;;;;;;27.50;20.30;;;;;;;;;;5039582;28;20218;-72
2021/07/15 10:53:34;;;;;;;34.10;21.27;;;;;;;;;;5035503;28;20645;-72
2021/07/15 10:56:01;;;;;;;33.80;22.75;;;;;;;;;;5040508;28;20177;-73
2021/07/15 10:58:44;;;;;;;30.95;22.45;;;;;;;;;;5034104;28;20263;-74
2021/07/15 11:01:29;;;;;;;35.15;24.67;;;;;;;;;;5043355;28;20719;-72
2021/07/15 11:04:14;;;;;;;33.97;24.23;;;;;;;;;;5036090;28;20230;-73
2021/07/15 11:06:50;;;;;;;36.83;25.58;;;;;;;;;;5046092;28;20181;-73
2021/07/15 11:09:32;;;;;;;39.03;27.10;;;;;;;;;;5033686;28;20216;-74
2021/07/15 11:12:00;;;;;;;40.80;26.50;;;;;;;;;;5039967;28;20197;-72
2021/07/15 11:14:43;;;;;;;42.47;27.70;;;;;;;;;;5032786;28;20208;-76
2021/07/15 11:17:27;;;;;;;38.15;26.15;;;;;;;;;;5044602;28;20189;-75
2021/07/15 11:20:11;;;;;;;39.97;26.75;;;;;;;;;;5035804;28;20688;-77
2021/07/15 11:22:50;;;;;;;45.13;27.83;;;;;;;;;;5038963;28;20679;-77
2021/07/15 11:25:35;;;;;;;48.33;27.98;;;;;;;;;;5035314;28;20189;-74
2021/07/15 11:28:15;;;;;;;44.13;27.50;;;;;;;;;;5045094;28;20231;-72
2021/07/15 11:30:42;;;;;;;42.15;27.90;;;;;;;;;;5033807;28;20188;-72
2021/07/15 11:33:10;;;;;;;47.53;28.67;;;;;;;;;;5042633;28;20195;-72
2021/07/15 11:35:36;;;;;;;46.00;30.77;;;;;;;;;;5036830;28;20652;-71
2021/07/15 11:38:08;;;;;;;48.22;30.90;;;;;;;;;;5044069;28;20205;-71
2021/07/15 11:40:36;;;;;;;48.72;32.42;;;;;;;;;;5030423;28;20216;-71
2021/07/15 11:43:22;;;;;;;46.88;30.60;;;;;;;;;;5044805;28;20605;-71
2021/07/15 11:46:15;;;;;;;54.63;32.20;;;;;;;;;;5035751;28;20196;-73
2021/07/15 11:48:41;;;;;;;46.22;31.23;;;;;;;;;;5043913;28;20182;-69
2021/07/15 11:51:29;;;;;;;42.97;30.50;;;;;;;;;;5019257;28;20214;-70
2021/07/15 11:54:22;;;;;;;52.17;31.15;;;;;;;;;;5026683;28;20629;-70
2021/07/15 11:57:00;;;;;;;56.38;31.55;;;;;;;;;;5013505;28;20661;-71
2021/07/15 11:59:45;;;;;;;58.72;32.15;;;;;;;;;;5025453;28;20296;-70
2021/07/15 12:02:40;;;;;;;48.58;32.00;;;;;;;;;;5011913;28;20557;-70
2021/07/15 12:05:37;;;;;;;46.92;29.17;;;;;;;;;;5021508;28;20664;-70
2021/07/15 12:08:16;;;;;;;49.70;31.40;;;;;;;;;;5016850;28;20508;-74
2021/07/15 12:10:47;;;;;;;42.08;29.10;;;;;;;;;;5018516;28;20182;-70
2021/07/15 12:13:15;;;;;;;45.47;30.98;;;;;;;;;;5010928;28;20186;-74
2021/07/15 12:15:43;;;;;;;42.13;26.95;;;;;;;;;;5008887;28;20186;-73
2021/07/15 12:18:27;;;;;;;39.47;27.45;;;;;;;;;;5014538;28;20190;-75
2021/07/15 12:20:55;;;;;;;45.25;28.92;;;;;;;;;;5020491;28;20222;-75
2021/07/15 12:23:32;;;;;;;49.67;31.92;;;;;;;;;;5012774;28;20201;-75
2021/07/15 12:25:58;;;;;;;56.25;33.13;;;;;;;;;;5022118;28;20193;-71
2021/07/15 12:28:27;;;;;;;55.88;33.85;;;;;;;;;;5012470;28;20688;-72
2021/07/15 12:30:58;;;;;;;57.58;34.33;;;;;;;;;;5024150;28;20226;-78
2021/07/15 12:33:38;;;;;;;63.38;33.78;;;;;;;;;;5021887;28;20956;-75
2021/07/15 12:36:12;;;;;;;63.45;36.58;;;;;;;;;;5009989;28;20208;-70
2021/07/15 12:38:38;;;;;;;67.85;35.88;;;;;;;;;;4995610;28;20293;-75
2021/07/15 12:41:13;;;;;;;65.05;37.00;;;;;;;;;;5024779;28;20198;-76
2021/07/15 12:43:44;;;;;;;68.78;37.28;;;;;;;;;;5011499;28;20685;-76
2021/07/15 12:46:21;;;;;;;66.35;36.78;;;;;;;;;;5028052;28;20189;-71
2021/07/15 12:48:50;;;;;;;68.82;37.70;;;;;;;;;;4998396;28;20201;-77
2021/07/15 12:51:17;;;;;;;70.05;38.17;;;;;;;;;;5028656;28;20308;-76
2021/07/15 12:53:47;;;;;;;62.90;36.92;;;;;;;;;;4995132;28;20194;-75
2021/07/15 12:56:21;;;;;;;63.97;38.22;;;;;;;;;;5022512;28;20244;-75
2021/07/15 12:59:02;;;;;;;72.95;37.53;;;;;;;;;;4993704;28;20201;-71
2021/07/15 13:01:27;;;;;;;58.97;35.33;;;;;;;;;;5027501;28;20202;-74
2021/07/15 13:04:10;;;;;;;54.45;34.00;;;;;;;;;;5019633;28;20190;-73
2021/07/15 13:06:37;;;;;;;60.83;34.35;;;;;;;;;;5027727;28;20287;-72
2021/07/15 13:09:15;;;;;;;59.85;35.40;;;;;;;;;;5014310;28;20248;-74
2021/07/15 13:14:46;;;;;;;65.80;35.40;;;;;;;;;;5015002;28;20840;-73
2021/07/15 13:17:12;;;;;;;60.72;36.08;;;;;;;;;;5027507;28;20598;-72
2021/07/15 13:19:40;;;;;;;63.03;36.15;;;;;;;;;;5015080;28;20264;-74
2021/07/15 13:22:14;;;;;;;72.43;36.33;;;;;;;;;;5028337;28;20645;-77
2021/07/15 13:24:43;;;;;;;60.15;37.28;;;;;;;;;;5018276;28;20190;-76
2021/07/15 13:27:17;;;;;;;55.97;33.22;;;;;;;;;;5002444;28;20186;-76
2021/07/15 13:29:44;;;;;;;60.53;35.55;;;;;;;;;;5008907;28;20268;-75
2021/07/15 13:32:11;;;;;;;59.28;34.65;;;;;;;;;;5000053;28;20523;-76
2021/07/15 13:34:42;;;;;;;60.00;35.30;;;;;;;;;;5009588;28;20182;-76
2021/07/15 13:37:08;;;;;;;66.20;36.47;;;;;;;;;;5010514;28;20190;-70
2021/07/15 13:39:38;;;;;;;63.20;35.85;;;;;;;;;;5026719;28;20328;-74
2021/07/15 13:42:05;;;;;;;68.90;38.10;;;;;;;;;;4997771;28;20225;-76
2021/07/15 13:44:31;;;;;;;62.45;35.63;;;;;;;;;;5025240;28;20204;-77
2021/07/15 13:47:26;;;;;;;59.25;35.40;;;;;;;;;;5017200;28;20194;-76
2021/07/15 13:50:20;;;;;;;68.43;35.97;;;;;;;;;;5034218;28;20787;-77
2021/07/15 13:52:46;;;;;;;55.45;35.05;;;;;;;;;;5037484;28;20545;-76
2021/07/15 13:55:14;;;;;;;56.60;34.30;;;;;;;;;;5044333;28;20177;-76
2021/07/15 13:58:00;;;;;;;54.63;32.85;;;;;;;;;;5036698;28;20197;-77
2021/07/15 14:00:29;;;;;;;48.53;32.97;;;;;;;;;;5048279;28;20216;-76
2021/07/15 14:02:58;;;;;;;50.05;31.42;;;;;;;;;;5035115;28;20185;-76
2021/07/15 14:05:33;;;;;;;57.97;32.40;;;;;;;;;;5040668;28;20790;-77
2021/07/15 14:08:00;;;;;;;53.90;31.92;;;;;;;;;;5036768;28;20189;-76
2021/07/15 14:10:27;;;;;;;53.40;31.52;;;;;;;;;;5049348;28;20591;-76
2021/07/15 14:12:53;;;;;;;57.83;32.78;;;;;;;;;;5033521;28;20539;-76
2021/07/15 14:15:25;;;;;;;61.00;35.35;;;;;;;;;;5044877;28;20177;-76
2021/07/15 14:18:01;;;;;;;61.42;34.38;;;;;;;;;;5029651;28;20673;-77
2021/07/15 14:20:27;;;;;;;53.72;32.95;;;;;;;;;;5046477;28;20250;-76
2021/07/15 14:22:53;;;;;;;40.95;29.10;;;;;;;;;;5034439;28;20626;-77
2021/07/15 14:25:18;;;;;;;45.50;27.80;;;;;;;;;;5045227;28;20193;-76
2021/07/15 14:27:45;;;;;;;40.47;26.55;;;;;;;;;;5034513;28;20240;-76
2021/07/15 14:30:11;;;;;;;42.75;28.02;;;;;;;;;;5036317;28;20225;-76